createdAt,value
2022-08-31T00:00:11.512Z,20.50
2022-08-31T00:02:57.417Z,20.40
2022-08-31T00:05:24.437Z,20.60
2022-08-31T00:07:51.945Z,20.60
2022-08-31T00:10:32.950Z,20.70
2022-08-31T00:13:05.032Z,20.60
2022-08-31T00:15:35.372Z,20.50
2022-08-31T00:18:02.210Z,20.30
2022-08-31T00:20:33.322Z,20.20
2022-08-31T00:23:03.146Z,20.20
2022-08-31T00:25:30.668Z,20.20
2022-08-31T00:27:57.352Z,20.30
2022-08-31T00:30:24.866Z,20.50
2022-08-31T00:32:51.583Z,20.50
2022-08-31T00:35:19.485Z,20.50
2022-08-31T00:37:46.212Z,20.40
2022-08-31T00:40:14.072Z,20.30
2022-08-31T00:42:41.607Z,20.10
2022-08-31T00:45:10.091Z,20.10
2022-08-31T00:47:37.050Z,20.00
2022-08-31T00:50:06.713Z,20.10
2022-08-31T00:52:39.274Z,20.30
2022-08-31T00:55:11.795Z,20.20
2022-08-31T00:57:41.520Z,20.30
2022-08-31T01:00:13.253Z,20.50
2022-08-31T01:02:40.545Z,20.30
2022-08-31T01:05:08.557Z,20.20
2022-08-31T01:07:35.866Z,20.10
2022-08-31T01:10:03.400Z,20.20
2022-08-31T01:12:30.510Z,20.20
2022-08-31T01:14:57.792Z,20.20
2022-08-31T01:17:24.700Z,20.20
2022-08-31T01:19:59.245Z,20.10
2022-08-31T01:22:42.340Z,20.20
2022-08-31T01:25:09.053Z,20.30
2022-08-31T01:27:37.011Z,20.20
2022-08-31T01:30:10.457Z,20.10
2022-08-31T01:32:38.538Z,20.20
2022-08-31T01:35:07.339Z,20.40
2022-08-31T01:37:38.582Z,20.50
2022-08-31T01:40:07.757Z,20.40
2022-08-31T01:42:34.734Z,20.40
2022-08-31T01:45:02.359Z,20.40
2022-08-31T01:47:29.037Z,20.50
2022-08-31T01:49:57.647Z,20.50
2022-08-31T01:52:27.586Z,20.40
2022-08-31T01:54:55.430Z,20.40
2022-08-31T01:57:33.788Z,20.40
2022-08-31T02:00:08.615Z,20.50
2022-08-31T02:02:35.747Z,20.50
2022-08-31T02:05:02.539Z,20.60
2022-08-31T02:07:29.277Z,20.60
2022-08-31T02:09:56.054Z,20.60
2022-08-31T02:12:22.777Z,20.70
2022-08-31T02:14:49.517Z,20.50
2022-08-31T02:17:16.567Z,20.20
2022-08-31T02:19:43.469Z,20.30
2022-08-31T02:22:10.281Z,20.30
2022-08-31T02:24:37.012Z,20.20
2022-08-31T02:27:03.953Z,20.20
2022-08-31T02:29:30.748Z,19.90
2022-08-31T02:31:58.507Z,19.80
2022-08-31T02:34:25.747Z,19.80
2022-08-31T02:36:52.545Z,19.90
2022-08-31T02:39:19.222Z,20.00
2022-08-31T02:41:45.976Z,20.00
2022-08-31T02:44:12.765Z,20.20
2022-08-31T02:46:39.528Z,20.30
2022-08-31T02:49:06.223Z,20.20
2022-08-31T02:51:32.925Z,20.30
2022-08-31T02:53:59.643Z,20.30
2022-08-31T02:56:26.390Z,20.20
2022-08-31T02:58:54.801Z,20.20
2022-08-31T03:01:23.276Z,20.40
2022-08-31T03:03:50.565Z,20.40
2022-08-31T03:06:18.666Z,20.20
2022-08-31T03:08:46.030Z,20.20
2022-08-31T03:11:13.456Z,20.30
2022-08-31T03:13:41.474Z,20.40
2022-08-31T03:16:08.698Z,20.20
2022-08-31T03:18:35.761Z,20.40
2022-08-31T03:21:02.488Z,20.60
2022-08-31T03:23:29.349Z,20.40
2022-08-31T03:25:56.051Z,20.50
2022-08-31T03:28:22.787Z,20.40
2022-08-31T03:30:49.749Z,20.60
2022-08-31T03:33:16.539Z,20.30
2022-08-31T03:35:44.221Z,20.20
2022-08-31T03:38:12.956Z,20.00
2022-08-31T03:40:45.043Z,19.80
2022-08-31T03:43:12.932Z,19.90
2022-08-31T03:45:41.893Z,19.70
2022-08-31T03:48:12.600Z,19.70
2022-08-31T03:50:40.757Z,19.50
2022-08-31T03:53:08.561Z,19.00
2022-08-31T03:55:37.469Z,18.60
2022-08-31T03:58:04.786Z,18.70
2022-08-31T04:00:33.427Z,19.20
2022-08-31T04:03:01.508Z,19.20
2022-08-31T04:05:30.144Z,18.90
2022-08-31T04:07:57.095Z,19.10
2022-08-31T04:10:23.883Z,19.60
2022-08-31T04:12:50.941Z,20.00
2022-08-31T04:15:18.621Z,20.20
2022-08-31T04:17:46.606Z,19.90
2022-08-31T04:20:14.564Z,20.00
2022-08-31T04:22:41.314Z,19.40
2022-08-31T04:25:10.344Z,19.40
2022-08-31T04:27:38.309Z,19.00
2022-08-31T04:30:07.670Z,18.70
2022-08-31T04:32:35.157Z,18.60
2022-08-31T04:35:02.006Z,18.60
2022-08-31T04:37:29.438Z,18.50
2022-08-31T04:39:59.250Z,18.50
2022-08-31T04:42:27.956Z,18.80
2022-08-31T04:44:54.692Z,18.60
2022-08-31T04:47:21.436Z,18.40
2022-08-31T04:49:48.483Z,18.60
2022-08-31T04:52:15.153Z,18.90
2022-08-31T04:54:42.089Z,18.60
2022-08-31T04:57:08.761Z,18.40
2022-08-31T04:59:36.338Z,18.70
2022-08-31T05:02:04.120Z,19.00
2022-08-31T05:04:31.842Z,19.10
2022-08-31T05:06:58.600Z,18.90
2022-08-31T05:09:25.446Z,19.10
2022-08-31T05:11:54.224Z,19.10
2022-08-31T05:14:22.296Z,18.90
2022-08-31T05:16:50.039Z,18.40
2022-08-31T05:19:17.304Z,18.20
2022-08-31T05:21:44.633Z,18.00
2022-08-31T05:24:22.670Z,18.10
2022-08-31T05:26:52.204Z,18.70
2022-08-31T05:29:22.117Z,18.40
2022-08-31T05:31:52.477Z,18.10
2022-08-31T05:34:20.754Z,18.40
2022-08-31T05:36:54.986Z,18.60
2022-08-31T05:39:22.131Z,18.70
2022-08-31T05:41:48.917Z,18.80
2022-08-31T05:44:16.995Z,18.80
2022-08-31T05:46:43.933Z,18.90
2022-08-31T05:49:11.575Z,19.00
2022-08-31T05:51:39.380Z,19.00
2022-08-31T05:54:07.553Z,19.00
2022-08-31T05:56:35.665Z,19.10
2022-08-31T05:59:03.305Z,19.10
2022-08-31T06:01:36.834Z,19.10
2022-08-31T06:04:04.409Z,19.10
2022-08-31T06:06:31.160Z,19.10
2022-08-31T06:08:58.221Z,19.10
2022-08-31T06:11:28.753Z,18.90
2022-08-31T06:13:58.891Z,18.80
2022-08-31T06:16:26.396Z,18.70
2022-08-31T06:18:55.649Z,18.80
2022-08-31T06:21:30.904Z,18.70
2022-08-31T06:23:58.179Z,18.60
2022-08-31T06:26:26.454Z,18.60
2022-08-31T06:28:55.530Z,18.60
2022-08-31T06:31:31.135Z,18.70
2022-08-31T06:33:59.231Z,18.70
2022-08-31T06:36:29.860Z,18.60
2022-08-31T06:38:59.272Z,18.60
2022-08-31T06:41:30.430Z,18.60
2022-08-31T06:44:01.865Z,18.60
2022-08-31T06:46:29.767Z,18.40
2022-08-31T06:48:57.609Z,18.50
2022-08-31T06:51:25.312Z,18.80
2022-08-31T06:53:53.167Z,18.60
2022-08-31T06:56:25.123Z,18.70
2022-08-31T06:58:53.857Z,18.80
2022-08-31T07:01:35.288Z,18.60
2022-08-31T07:04:07.219Z,18.90
2022-08-31T07:06:45.142Z,18.80
2022-08-31T07:09:17.408Z,18.60
2022-08-31T07:11:47.258Z,18.70
2022-08-31T07:14:17.093Z,18.90
2022-08-31T07:16:45.552Z,18.90
2022-08-31T07:19:14.031Z,18.80
2022-08-31T07:21:43.880Z,18.70
2022-08-31T07:24:12.366Z,18.60
2022-08-31T07:26:42.396Z,18.70
2022-08-31T07:29:10.587Z,18.90
2022-08-31T07:31:46.343Z,18.90
2022-08-31T07:34:28.442Z,18.70
2022-08-31T07:37:16.360Z,18.70
2022-08-31T07:40:07.025Z,18.70
2022-08-31T07:42:39.256Z,18.70
2022-08-31T07:45:12.097Z,19.00
2022-08-31T07:47:46.044Z,19.00
2022-08-31T07:50:14.750Z,19.00
2022-08-31T07:52:47.215Z,19.00
2022-08-31T07:55:16.900Z,19.00
2022-08-31T07:57:44.302Z,19.10
2022-08-31T08:00:21.348Z,19.20
2022-08-31T08:02:52.767Z,19.50
2022-08-31T08:05:26.884Z,19.70
2022-08-31T08:07:55.974Z,19.70
2022-08-31T08:10:24.145Z,19.80
2022-08-31T08:13:05.262Z,19.90
2022-08-31T08:15:36.443Z,19.60
2022-08-31T08:18:05.758Z,19.50
2022-08-31T08:20:37.939Z,19.50
2022-08-31T08:23:14.527Z,19.70
2022-08-31T08:25:43.205Z,19.60
2022-08-31T08:28:35.912Z,19.60
2022-08-31T08:31:05.425Z,19.80
2022-08-31T08:33:34.552Z,20.20
2022-08-31T08:36:07.410Z,20.00
2022-08-31T08:38:35.657Z,20.10
2022-08-31T08:41:06.858Z,20.00
2022-08-31T08:43:40.626Z,19.80
2022-08-31T08:46:33.569Z,20.10
2022-08-31T08:49:08.630Z,20.20
2022-08-31T08:51:39.263Z,19.90
2022-08-31T08:54:13.397Z,20.00
2022-08-31T08:56:47.106Z,20.20
2022-08-31T08:59:19.235Z,20.50
2022-08-31T09:01:50.753Z,20.60
2022-08-31T09:04:32.877Z,20.70
2022-08-31T09:07:11.871Z,20.80
2022-08-31T09:10:03.937Z,20.70
2022-08-31T09:12:53.086Z,20.60
2022-08-31T09:15:36.242Z,20.70
2022-08-31T09:18:40.945Z,20.60
2022-08-31T09:21:22.250Z,20.70
2022-08-31T09:23:59.560Z,21.00
2022-08-31T09:26:27.692Z,21.30
2022-08-31T09:28:55.949Z,21.40
2022-08-31T09:31:43.615Z,21.40
2022-08-31T09:34:24.830Z,21.50
2022-08-31T09:36:54.341Z,21.40
2022-08-31T09:39:35.816Z,21.30
2022-08-31T09:42:16.642Z,21.40
2022-08-31T09:44:48.066Z,21.50
2022-08-31T09:47:48.706Z,21.50
2022-08-31T09:50:27.196Z,21.50
2022-08-31T09:53:43.100Z,21.40
2022-08-31T09:56:15.634Z,21.30
2022-08-31T09:59:01.563Z,21.30
2022-08-31T10:01:44.798Z,21.60
2022-08-31T10:04:17.157Z,21.60
2022-08-31T10:07:15.104Z,21.80
2022-08-31T10:09:58.044Z,22.10
2022-08-31T10:12:45.190Z,22.20
2022-08-31T10:15:25.444Z,22.10
2022-08-31T10:18:04.011Z,22.20
2022-08-31T10:20:38.202Z,21.90
2022-08-31T10:23:27.345Z,21.80
2022-08-31T10:26:01.003Z,22.00
2022-08-31T10:28:37.258Z,22.00
2022-08-31T10:31:13.859Z,22.30
2022-08-31T10:34:17.742Z,22.30
2022-08-31T10:36:47.440Z,22.30
2022-08-31T10:39:38.289Z,22.20
2022-08-31T10:42:14.659Z,22.20
2022-08-31T10:44:57.022Z,21.90
2022-08-31T10:47:33.843Z,21.90
2022-08-31T10:50:03.619Z,22.00
2022-08-31T10:52:34.875Z,22.10
2022-08-31T10:55:23.494Z,22.30
2022-08-31T10:58:11.937Z,22.20
2022-08-31T11:00:51.990Z,22.30
2022-08-31T11:03:43.344Z,22.60
2022-08-31T11:06:39.128Z,22.30
2022-08-31T11:09:54.985Z,22.40
2022-08-31T11:12:30.711Z,22.90
2022-08-31T11:15:28.641Z,23.00
2022-08-31T11:18:40.319Z,23.20
2022-08-31T11:21:07.914Z,22.90
2022-08-31T11:24:07.799Z,23.00
2022-08-31T11:27:11.798Z,23.50
2022-08-31T11:29:47.721Z,23.50
2022-08-31T11:32:22.340Z,23.50
2022-08-31T11:34:54.881Z,23.50
2022-08-31T11:37:52.857Z,23.60
2022-08-31T11:40:41.536Z,23.30
2022-08-31T11:43:36.162Z,22.70
2022-08-31T11:46:27.818Z,23.10
2022-08-31T11:48:55.090Z,23.70
2022-08-31T11:51:43.279Z,23.60
2022-08-31T11:54:42.079Z,22.90
2022-08-31T11:57:15.575Z,22.90
2022-08-31T11:59:45.978Z,23.00
2022-08-31T12:02:22.960Z,23.20
2022-08-31T12:04:53.238Z,23.50
2022-08-31T12:07:30.397Z,23.70
2022-08-31T12:10:15.459Z,23.50
2022-08-31T12:12:51.367Z,23.40
2022-08-31T12:15:48.906Z,23.30
2022-08-31T12:18:43.588Z,23.40
2022-08-31T12:21:31.940Z,23.50
2022-08-31T12:24:18.850Z,23.70
2022-08-31T12:26:59.279Z,23.70
2022-08-31T12:29:36.360Z,23.70
2022-08-31T12:32:17.783Z,23.80
2022-08-31T12:34:56.221Z,23.20
2022-08-31T12:37:26.112Z,23.10
2022-08-31T12:40:22.619Z,23.00
2022-08-31T12:43:05.660Z,23.50
2022-08-31T12:45:55.375Z,23.50
2022-08-31T12:48:36.860Z,23.40
2022-08-31T12:51:10.818Z,23.40
2022-08-31T12:53:56.292Z,23.40
2022-08-31T12:56:51.954Z,23.70
2022-08-31T12:59:57.359Z,23.70
2022-08-31T13:02:23.445Z,23.80
2022-08-31T13:04:50.514Z,23.70
2022-08-31T13:07:20.200Z,23.50
2022-08-31T13:09:47.229Z,23.40
2022-08-31T13:12:23.919Z,23.50
2022-08-31T13:14:50.729Z,23.70
2022-08-31T13:17:22.064Z,23.50
2022-08-31T13:19:55.412Z,22.90
2022-08-31T13:22:30.173Z,23.40
2022-08-31T13:25:10.823Z,23.30
2022-08-31T13:27:39.337Z,23.40
2022-08-31T13:30:19.150Z,23.00
2022-08-31T13:32:52.437Z,23.10
2022-08-31T13:35:24.671Z,23.50
2022-08-31T13:38:05.571Z,23.80
2022-08-31T13:40:37.304Z,23.50
2022-08-31T13:43:07.797Z,23.00
2022-08-31T13:45:40.741Z,22.40
2022-08-31T13:48:20.273Z,22.30
2022-08-31T13:50:53.425Z,22.40
2022-08-31T13:53:39.472Z,22.50
2022-08-31T13:56:46.739Z,22.90
2022-08-31T13:59:23.659Z,22.80
2022-08-31T14:02:19.338Z,23.10
2022-08-31T14:04:57.892Z,23.10
2022-08-31T14:07:51.961Z,22.80
2022-08-31T14:10:24.308Z,23.10
2022-08-31T14:12:59.315Z,22.90
2022-08-31T14:15:48.818Z,22.80
2022-08-31T14:18:40.454Z,23.00
2022-08-31T14:21:21.778Z,23.50
2022-08-31T14:24:00.440Z,23.00
2022-08-31T14:26:29.626Z,23.50
2022-08-31T14:29:00.477Z,23.30
2022-08-31T14:31:34.805Z,22.80
2022-08-31T14:34:22.573Z,23.30
2022-08-31T14:37:06.465Z,23.40
2022-08-31T14:39:42.612Z,23.10
2022-08-31T14:42:39.446Z,23.30
2022-08-31T14:45:20.558Z,23.60
2022-08-31T14:47:52.126Z,24.20
2022-08-31T14:50:23.417Z,24.40
2022-08-31T14:52:55.398Z,24.20
2022-08-31T14:55:24.478Z,23.90
2022-08-31T14:57:59.438Z,23.20
2022-08-31T15:00:31.752Z,23.10
2022-08-31T15:03:01.256Z,23.20
2022-08-31T15:05:28.023Z,23.00
2022-08-31T15:07:55.464Z,22.90
2022-08-31T15:10:25.442Z,22.80
2022-08-31T15:12:53.486Z,22.60
2022-08-31T15:15:20.908Z,22.70
2022-08-31T15:17:50.511Z,22.50
2022-08-31T15:20:19.674Z,22.10
2022-08-31T15:22:47.821Z,22.10
2022-08-31T15:25:15.661Z,22.00
2022-08-31T15:27:44.449Z,22.00
2022-08-31T15:30:14.793Z,22.40
2022-08-31T15:32:45.221Z,22.10
2022-08-31T15:35:17.890Z,22.10
2022-08-31T15:37:56.224Z,22.10
2022-08-31T15:40:24.035Z,21.80
2022-08-31T15:42:53.875Z,21.80
2022-08-31T15:45:22.202Z,21.90
2022-08-31T15:48:07.585Z,21.90
2022-08-31T15:50:35.935Z,22.00
2022-08-31T15:53:09.902Z,22.00
2022-08-31T15:55:40.843Z,21.80
2022-08-31T15:58:09.667Z,21.90
2022-08-31T16:00:37.628Z,21.80
2022-08-31T16:03:06.203Z,21.60
2022-08-31T16:05:39.168Z,21.60
2022-08-31T16:08:09.945Z,21.40
2022-08-31T16:10:38.467Z,21.40
2022-08-31T16:13:07.172Z,21.70
2022-08-31T16:15:34.548Z,21.90
2022-08-31T16:18:03.041Z,22.10
2022-08-31T16:20:30.218Z,22.20
2022-08-31T16:22:58.783Z,22.00
2022-08-31T16:25:47.607Z,22.10
2022-08-31T16:28:15.202Z,22.00
2022-08-31T16:30:43.950Z,21.90
2022-08-31T16:33:12.158Z,21.60
2022-08-31T16:35:39.328Z,21.60
2022-08-31T16:38:07.149Z,21.70
2022-08-31T16:40:35.588Z,21.60
2022-08-31T16:43:03.184Z,21.40
2022-08-31T16:45:30.243Z,21.40
2022-08-31T16:48:17.174Z,21.30
2022-08-31T16:50:48.669Z,21.20
2022-08-31T16:53:18.276Z,21.30
2022-08-31T16:55:47.543Z,21.30
2022-08-31T16:58:21.574Z,21.40
2022-08-31T17:01:13.229Z,21.40
2022-08-31T17:03:52.281Z,21.40
2022-08-31T17:06:20.176Z,21.50
2022-08-31T17:08:47.230Z,21.60
2022-08-31T17:11:21.566Z,21.60
2022-08-31T17:13:50.275Z,21.50
2022-08-31T17:16:23.827Z,21.70
2022-08-31T17:18:52.586Z,21.90
2022-08-31T17:21:21.953Z,21.80
2022-08-31T17:23:51.132Z,21.80
2022-08-31T17:26:19.663Z,21.90
2022-08-31T17:28:54.842Z,21.90
2022-08-31T17:31:21.672Z,22.00
2022-08-31T17:33:48.467Z,21.90
2022-08-31T17:36:20.210Z,21.70
2022-08-31T17:38:48.589Z,21.60
2022-08-31T17:41:15.557Z,21.50
2022-08-31T17:43:42.339Z,21.40
2022-08-31T17:46:11.819Z,21.40
2022-08-31T17:48:40.495Z,21.30
2022-08-31T17:51:09.945Z,21.10
2022-08-31T17:53:37.386Z,21.20
2022-08-31T17:56:08.006Z,21.10
2022-08-31T17:58:34.920Z,21.00
2022-08-31T18:01:03.377Z,21.00
2022-08-31T18:03:30.283Z,21.00
2022-08-31T18:05:57.098Z,21.00
2022-08-31T18:08:24.483Z,21.00
2022-08-31T18:10:52.945Z,21.00
2022-08-31T18:13:21.525Z,20.90
2022-08-31T18:15:51.345Z,20.90
2022-08-31T18:18:18.473Z,20.90
2022-08-31T18:20:45.326Z,20.60
2022-08-31T18:23:13.041Z,20.40
2022-08-31T18:25:41.101Z,20.30
2022-08-31T18:28:07.929Z,20.30
2022-08-31T18:30:40.594Z,20.20
2022-08-31T18:33:14.765Z,20.00
2022-08-31T18:35:46.683Z,20.10
2022-08-31T18:38:13.679Z,20.00
2022-08-31T18:40:59.305Z,19.90
2022-08-31T18:43:44.703Z,19.80
2022-08-31T18:46:11.605Z,19.80
2022-08-31T18:48:40.071Z,19.70
2022-08-31T18:51:09.106Z,19.70
2022-08-31T18:53:36.234Z,19.70
2022-08-31T18:56:09.471Z,19.60
2022-08-31T18:58:38.216Z,19.60
2022-08-31T19:01:10.198Z,19.70
2022-08-31T19:03:40.982Z,19.70
2022-08-31T19:06:15.977Z,19.70
2022-08-31T19:08:42.980Z,19.60
2022-08-31T19:11:09.784Z,19.80
2022-08-31T19:13:36.650Z,19.70
2022-08-31T19:16:14.752Z,19.60
2022-08-31T19:18:44.138Z,19.60
2022-08-31T19:21:17.190Z,19.40
2022-08-31T19:23:44.827Z,19.40
2022-08-31T19:26:18.259Z,19.40
2022-08-31T19:28:48.721Z,19.50
2022-08-31T19:31:18.598Z,19.40
2022-08-31T19:33:46.157Z,19.30
2022-08-31T19:36:13.811Z,19.40
2022-08-31T19:38:42.223Z,19.40
2022-08-31T19:41:23.927Z,19.40
2022-08-31T19:44:02.849Z,19.30
2022-08-31T19:46:32.930Z,19.40
2022-08-31T19:49:02.909Z,19.30
2022-08-31T19:51:31.427Z,19.40
2022-08-31T19:53:59.729Z,19.20
2022-08-31T19:56:31.186Z,19.30
2022-08-31T19:59:00.115Z,19.40
2022-08-31T20:01:33.591Z,19.30
2022-08-31T20:04:04.524Z,19.30
2022-08-31T20:06:31.817Z,19.30
2022-08-31T20:09:01.074Z,19.30
2022-08-31T20:11:30.079Z,19.30
2022-08-31T20:13:59.431Z,19.30
2022-08-31T20:16:33.798Z,19.30
2022-08-31T20:19:01.702Z,19.20
2022-08-31T20:21:32.719Z,19.20
2022-08-31T20:24:04.752Z,19.20
2022-08-31T20:26:37.704Z,19.30
2022-08-31T20:29:13.592Z,19.30
2022-08-31T20:31:45.564Z,19.40
2022-08-31T20:34:19.467Z,19.30
2022-08-31T20:36:59.976Z,19.30
2022-08-31T20:39:30.102Z,19.30
2022-08-31T20:41:58.924Z,19.50
2022-08-31T20:44:30.445Z,19.40
2022-08-31T20:47:19.397Z,19.30
2022-08-31T20:49:55.146Z,19.20
2022-08-31T20:52:25.584Z,19.20
2022-08-31T20:55:01.978Z,19.20
2022-08-31T20:57:30.937Z,19.10
2022-08-31T20:59:57.887Z,19.10
2022-08-31T21:02:24.671Z,19.00
2022-08-31T21:04:51.408Z,19.10
2022-08-31T21:07:19.198Z,19.10
2022-08-31T21:09:46.842Z,19.20
2022-08-31T21:12:18.093Z,19.20
2022-08-31T21:14:46.174Z,19.20
2022-08-31T21:17:14.405Z,19.10
2022-08-31T21:19:43.438Z,19.00
2022-08-31T21:22:13.603Z,18.90
2022-08-31T21:24:43.253Z,18.90
2022-08-31T21:27:16.148Z,18.80
2022-08-31T21:29:46.818Z,18.80
2022-08-31T21:32:14.509Z,18.70
2022-08-31T21:34:41.244Z,18.70
2022-08-31T21:37:09.258Z,18.70
2022-08-31T21:39:37.329Z,18.80
2022-08-31T21:42:04.707Z,18.80
2022-08-31T21:44:31.554Z,18.90
2022-08-31T21:46:58.498Z,18.80
2022-08-31T21:49:25.431Z,18.80
2022-08-31T21:51:57.751Z,18.70
2022-08-31T21:54:27.496Z,18.70
2022-08-31T21:57:00.707Z,18.60
2022-08-31T21:59:36.611Z,18.70
2022-08-31T22:02:06.719Z,18.60
2022-08-31T22:04:36.029Z,18.60
2022-08-31T22:07:03.428Z,18.60
2022-08-31T22:09:31.293Z,18.70
2022-08-31T22:11:59.399Z,18.60
2022-08-31T22:14:28.817Z,18.70
2022-08-31T22:16:57.868Z,18.60
2022-08-31T22:19:27.095Z,18.40
2022-08-31T22:22:01.590Z,18.30
2022-08-31T22:24:31.493Z,18.30
2022-08-31T22:27:02.044Z,18.30
2022-08-31T22:29:31.687Z,18.40
2022-08-31T22:32:02.374Z,18.40
2022-08-31T22:34:29.144Z,18.30
2022-08-31T22:36:56.710Z,18.20
2022-08-31T22:39:28.589Z,18.30
2022-08-31T22:41:56.721Z,18.40
2022-08-31T22:44:26.390Z,18.30
2022-08-31T22:46:53.613Z,18.30
2022-08-31T22:49:20.574Z,18.40
2022-08-31T22:51:48.475Z,18.50
2022-08-31T22:54:17.589Z,18.40
2022-08-31T22:56:44.586Z,18.40
2022-08-31T22:59:14.737Z,18.20
2022-08-31T23:01:46.590Z,18.10
2022-08-31T23:04:15.109Z,18.20
2022-08-31T23:06:41.958Z,18.10
2022-08-31T23:09:10.711Z,18.00
2022-08-31T23:11:38.360Z,17.80
2022-08-31T23:14:10.076Z,17.70
2022-08-31T23:16:47.038Z,17.70
2022-08-31T23:19:18.242Z,17.70
2022-08-31T23:21:52.909Z,17.60
2022-08-31T23:24:31.408Z,17.50
2022-08-31T23:27:04.409Z,17.50
2022-08-31T23:29:47.806Z,17.60
2022-08-31T23:32:18.186Z,17.70
2022-08-31T23:34:46.654Z,17.60
2022-08-31T23:37:14.147Z,17.60
2022-08-31T23:39:47.478Z,17.60
2022-08-31T23:42:16.663Z,17.60
2022-08-31T23:44:45.828Z,17.50
2022-08-31T23:47:17.525Z,17.30
2022-08-31T23:49:45.583Z,17.30
2022-08-31T23:52:18.523Z,17.30
2022-08-31T23:54:46.055Z,17.30
2022-08-31T23:57:31.732Z,17.30
